Time;durP1;ratioP1;P1;durP2;ratioP2;P2;SDS_P1;SDS_P2;PMS_P1;PMS_P2;Temp;Humidity;BMP_temperature;BMP_pressure;BME280_temperature;BME280_humidity;BME280_pressure;Samples;Min_cycle;Max_cycle;Signal;HPM_P1;HPM_P2
2022/10/18 00:00:09;;;;;;;14.30;7.15;;;;;;;16.53;78.89;100381.66;343350;28;2274;-73
2022/10/18 00:00:21;;;;;;;14.68;7.38;;;;;;;16.54;78.95;100375.47;342560;28;1486;-73
2022/10/18 00:00:33;;;;;;;12.77;7.30;;;;;;;16.55;79.00;100369.31;341870;28;1597;-73
2022/10/18 00:00:46;;;;;;;10.23;6.82;;;;;;;16.56;78.82;100373.66;340737;28;1754;-73
2022/10/18 00:00:59;;;;;;;10.27;6.57;;;;;;;16.56;78.75;100381.53;340888;29;1043;-72
2022/10/18 00:01:10;;;;;;;12.75;6.63;;;;;;;16.55;78.77;100374.56;341029;29;1115;-72
2022/10/18 00:01:22;;;;;;;11.20;6.90;;;;;;;16.55;78.73;100378.03;341574;28;1147;-72
2022/10/18 00:01:34;;;;;;;12.65;6.50;;;;;;;16.53;78.80;100379.03;341166;28;2031;-73
2022/10/18 00:01:46;;;;;;;11.95;6.10;;;;;;;16.51;78.86;100383.50;341048;28;1879;-73
2022/10/18 00:01:58;;;;;;;10.00;5.50;;;;;;;16.48;79.08;100376.63;341386;28;1167;-73
2022/10/18 00:02:10;;;;;;;8.07;5.63;;;;;;;16.48;78.94;100384.50;342095;28;1297;-73
2022/10/18 00:02:22;;;;;;;8.98;5.55;;;;;;;16.47;79.10;100379.31;341981;28;1236;-72
2022/10/18 00:02:34;;;;;;;12.57;7.88;;;;;;;16.42;79.22;100373.41;342462;28;1176;-73
2022/10/18 00:02:46;;;;;;;13.77;9.45;;;;;;;16.40;79.19;100385.75;342364;28;1059;-72
2022/10/18 00:02:58;;;;;;;15.55;13.30;;;;;;;16.36;79.59;100383.28;343585;28;1155;-73
2022/10/18 00:03:10;;;;;;;13.63;12.10;;;;;;;16.34;79.64;100382.50;343451;28;1027;-72
2022/10/18 00:03:22;;;;;;;17.45;15.65;;;;;;;16.31;79.63;100377.38;342717;28;1848;-72
2022/10/18 00:03:35;;;;;;;21.08;16.77;;;;;;;16.31;79.87;100387.88;343552;28;1046;-72
2022/10/18 00:03:47;;;;;;;23.48;17.92;;;;;;;16.34;79.84;100385.13;343302;28;1606;-72
2022/10/18 00:03:59;;;;;;;19.08;14.93;;;;;;;16.37;79.70;100386.75;342455;28;1298;-72
2022/10/18 00:04:11;;;;;;;13.50;11.25;;;;;;;16.37;79.66;100382.34;342016;28;1067;-73
2022/10/18 00:04:23;;;;;;;13.88;12.35;;;;;;;16.37;79.91;100382.34;342860;28;1366;-72
2022/10/18 00:04:35;;;;;;;11.95;10.75;;;;;;;16.35;79.96;100383.34;343656;28;1031;-73
2022/10/18 00:04:47;;;;;;;9.70;6.72;;;;;;;16.32;79.81;100379.09;343512;28;1271;-72
2022/10/18 00:04:59;;;;;;;9.38;4.93;;;;;;;16.31;79.94;100380.00;343525;28;1216;-72
2022/10/18 00:05:11;;;;;;;10.25;4.65;;;;;;;16.32;79.94;100383.50;343866;28;741;-72
2022/10/18 00:05:23;;;;;;;9.55;4.63;;;;;;;16.21;79.91;100386.56;343232;28;1691;-72
2022/10/18 00:05:34;;;;;;;9.57;4.78;;;;;;;16.20;80.44;100379.63;342635;28;1890;-72
2022/10/18 00:05:48;;;;;;;8.85;4.75;;;;;;;16.21;80.32;100386.56;342840;28;1529;-72
2022/10/18 00:06:01;;;;;;;8.57;4.78;;;;;;;16.14;80.34;100387.78;343406;28;1598;-73
2022/10/18 00:06:13;;;;;;;9.40;4.88;;;;;;;16.12;80.64;100387.00;342447;28;2012;-72
2022/10/18 00:06:25;;;;;;;10.45;5.00;;;;;;;16.15;80.59;100386.84;341981;28;1620;-73
2022/10/18 00:06:37;;;;;;;8.27;4.80;;;;;;;16.13;80.64;100388.69;342000;28;1890;-72
2022/10/18 00:06:54;;;;;;;9.73;4.80;;;;;;;16.10;80.91;100388.84;341445;28;1454;-72
2022/10/18 00:07:06;;;;;;;11.10;4.78;;;;;;;16.09;80.77;100387.97;342558;28;1273;-72
2022/10/18 00:07:18;;;;;;;10.15;4.63;;;;;;;16.09;80.83;100389.75;342305;28;1516;-73
2022/10/18 00:07:30;;;;;;;10.35;4.68;;;;;;;16.12;80.53;100392.25;341505;28;1881;-73
2022/10/18 00:07:42;;;;;;;10.23;4.82;;;;;;;16.14;80.64;100391.25;341877;28;2106;-73
2022/10/18 00:07:54;;;;;;;10.38;4.88;;;;;;;16.18;80.65;100391.97;343158;28;1518;-73
2022/10/18 00:08:06;;;;;;;9.88;4.95;;;;;;;16.19;80.59;100391.03;343292;28;1052;-73
2022/10/18 00:08:19;;;;;;;10.63;5.32;;;;;;;16.19;80.69;100388.41;343294;28;1168;-72
2022/10/18 00:08:31;;;;;;;11.48;6.07;;;;;;;16.22;80.75;100393.53;342277;28;1019;-72
2022/10/18 00:08:43;;;;;;;10.25;6.00;;;;;;;16.23;80.86;100391.75;342254;28;1251;-73
2022/10/18 00:08:55;;;;;;;10.80;7.07;;;;;;;16.23;81.05;100383.88;341052;28;2075;-73
2022/10/18 00:09:07;;;;;;;11.68;8.18;;;;;;;16.25;80.87;100393.38;341476;28;1293;-72
2022/10/18 00:09:19;;;;;;;12.90;9.23;;;;;;;16.27;80.82;100386.28;342193;28;1177;-72
2022/10/18 00:09:31;;;;;;;11.50;8.65;;;;;;;16.30;80.74;100386.19;342093;28;1028;-72
2022/10/18 00:09:43;;;;;;;11.45;7.25;;;;;;;16.33;80.23;100386.03;342233;28;1197;-72
2022/10/18 00:09:55;;;;;;;9.13;5.53;;;;;;;16.37;80.37;100387.59;342146;28;1248;-72
2022/10/18 00:10:07;;;;;;;8.55;4.80;;;;;;;16.40;80.37;100388.38;342125;28;1167;-72
2022/10/18 00:10:19;;;;;;;7.43;4.47;;;;;;;16.42;79.99;100384.78;342330;28;935;-72
2022/10/18 00:10:31;;;;;;;6.25;4.10;;;;;;;16.45;79.91;100389.03;342622;28;1683;-73
2022/10/18 00:10:44;;;;;;;7.70;4.03;;;;;;;16.45;79.85;100395.13;344731;28;1059;-73
2022/10/18 00:10:56;;;;;;;7.50;4.10;;;;;;;16.47;80.06;100388.03;342811;28;1983;-75
2022/10/18 00:11:08;;;;;;;7.88;4.15;;;;;;;16.48;79.74;100383.63;342207;28;1659;-76
2022/10/18 00:11:20;;;;;;;10.38;4.35;;;;;;;16.48;79.56;100388.88;341780;28;1336;-73
2022/10/18 00:11:32;;;;;;;11.90;4.60;;;;;;;16.47;79.81;100387.19;341938;28;1851;-73
2022/10/18 00:11:44;;;;;;;11.30;4.70;;;;;;;16.44;79.95;100382.06;342442;28;1209;-73
2022/10/18 00:11:56;;;;;;;7.57;4.63;;;;;;;16.43;80.03;100391.72;342246;28;1070;-73
2022/10/18 00:12:08;;;;;;;9.63;4.63;;;;;;;16.45;79.77;100392.50;341560;28;1669;-73
2022/10/18 00:12:20;;;;;;;10.77;4.72;;;;;;;16.45;79.78;100387.25;342622;28;1478;-73
2022/10/18 00:12:34;;;;;;;11.10;4.80;;;;;;;16.45;80.01;100384.63;343584;28;1042;-73
2022/10/18 00:12:46;;;;;;;9.00;4.90;;;;;;;16.47;79.99;100384.56;342531;28;1737;-73
2022/10/18 00:13:03;;;;;;;6.13;4.50;;;;;;;16.48;80.05;100384.50;342342;28;1178;-73
2022/10/18 00:13:15;;;;;;;6.00;4.47;;;;;;;16.49;80.16;100385.34;342561;28;1166;-73
2022/10/18 00:13:27;;;;;;;6.28;4.75;;;;;;;16.51;79.78;100388.75;341170;28;1039;-73
2022/10/18 00:13:39;;;;;;;5.97;4.78;;;;;;;16.53;79.88;100379.88;342134;28;1036;-73
2022/10/18 00:13:51;;;;;;;5.85;4.53;;;;;;;16.55;79.85;100385.91;342466;28;1142;-74
2022/10/18 00:14:03;;;;;;;5.50;4.20;;;;;;;16.58;79.72;100384.94;342409;28;1202;-73
2022/10/18 00:14:16;;;;;;;7.40;4.10;;;;;;;16.61;79.63;100386.56;342061;28;1738;-73
2022/10/18 00:14:27;;;;;;;8.13;4.20;;;;;;;16.62;79.42;100386.50;342079;28;1232;-73
2022/10/18 00:14:39;;;;;;;6.85;4.30;;;;;;;16.62;79.58;100386.50;342225;28;1294;-73
2022/10/18 00:14:51;;;;;;;5.28;4.18;;;;;;;16.63;79.23;100388.19;342583;28;1138;-73
2022/10/18 00:15:06;;;;;;;6.55;4.55;;;;;;;16.64;79.31;100387.28;343003;28;1870;-73
2022/10/18 00:15:18;;;;;;;9.73;4.97;;;;;;;16.64;79.20;100384.66;342442;28;1655;-73
2022/10/18 00:15:30;;;;;;;9.63;5.30;;;;;;;16.65;79.43;100388.13;343298;28;1011;-73
2022/10/18 00:15:57;;;;;;;10.27;5.10;;;;;;;16.67;79.21;100384.50;343219;28;1054;-73
2022/10/18 00:16:14;;;;;;;7.78;4.25;;;;;;;16.69;78.92;100380.03;341597;28;1977;-73
2022/10/18 00:16:26;;;;;;;8.93;4.47;;;;;;;16.72;79.02;100382.53;342037;28;1303;-73
2022/10/18 00:16:38;;;;;;;8.95;4.38;;;;;;;16.72;78.94;100392.16;342121;28;1042;-73
2022/10/18 00:16:50;;;;;;;9.10;4.25;;;;;;;16.71;78.80;100386.06;342302;28;1616;-73
2022/10/18 00:17:02;;;;;;;8.98;4.10;;;;;;;16.71;78.79;100391.31;343383;28;1189;-73
2022/10/18 00:17:14;;;;;;;9.57;4.20;;;;;;;16.72;78.69;100387.78;343441;28;1192;-73
2022/10/18 00:17:26;;;;;;;11.38;4.50;;;;;;;16.71;78.53;100386.06;342085;28;1043;-73
2022/10/18 00:17:39;;;;;;;12.38;4.63;;;;;;;16.72;78.53;100387.78;342137;28;1236;-73
2022/10/18 00:17:51;;;;;;;10.25;4.30;;;;;;;16.71;78.57;100390.47;342182;28;1737;-73
2022/10/18 00:18:03;;;;;;;10.50;4.40;;;;;;;16.71;78.82;100391.31;342347;28;1043;-73
2022/10/18 00:18:14;;;;;;;11.80;4.80;;;;;;;16.71;78.85;100391.31;341362;28;1229;-73
2022/10/18 00:18:27;;;;;;;9.63;4.70;;;;;;;16.72;79.05;100387.78;342064;28;1203;-73
2022/10/18 00:18:40;;;;;;;7.70;4.28;;;;;;;16.69;78.96;100382.66;342637;28;1078;-73
2022/10/18 00:18:52;;;;;;;7.70;4.45;;;;;;;16.64;79.24;100382.03;342537;28;1279;-73
2022/10/18 00:19:03;;;;;;;7.28;4.45;;;;;;;16.64;79.26;100384.66;341119;28;1742;-73
2022/10/18 00:19:15;;;;;;;8.30;4.53;;;;;;;16.65;79.60;100391.59;341290;28;1020;-73
2022/10/18 00:19:27;;;;;;;6.47;4.38;;;;;;;16.65;79.54;100391.59;342248;28;1035;-73
2022/10/18 00:19:40;;;;;;;6.13;4.13;;;;;;;16.66;79.53;100392.44;342544;28;1175;-73
2022/10/18 00:19:52;;;;;;;7.88;4.20;;;;;;;16.66;79.72;100390.69;342502;28;1084;-73
2022/10/18 00:20:05;;;;;;;8.32;4.70;;;;;;;16.66;79.60;100390.69;342424;28;1223;-73
2022/10/18 00:20:17;;;;;;;7.07;4.70;;;;;;;16.65;79.88;100391.59;342143;28;1173;-73
2022/10/18 00:20:29;;;;;;;7.65;4.78;;;;;;;16.66;79.70;100393.31;342240;28;1012;-73
2022/10/18 00:20:41;;;;;;;7.43;4.50;;;;;;;16.67;79.67;100389.75;342621;28;1071;-73
2022/10/18 00:21:02;;;;;;;9.90;4.65;;;;;;;16.67;79.80;100395.00;342387;28;1073;-73
2022/10/18 00:21:17;;;;;;;10.15;4.85;;;;;;;16.71;79.60;100387.84;342285;28;1329;-73
2022/10/18 00:21:29;;;;;;;10.80;5.00;;;;;;;16.73;79.52;100389.47;342387;28;970;-73
2022/10/18 00:21:42;;;;;;;10.00;5.00;;;;;;;16.72;79.74;100390.41;342712;28;1283;-73
2022/10/18 00:21:55;;;;;;;9.57;4.85;;;;;;;16.72;79.52;100387.78;342641;28;791;-73
2022/10/18 00:22:07;;;;;;;14.15;5.05;;;;;;;16.73;79.61;100383.38;341775;28;1717;-73
2022/10/18 00:22:19;;;;;;;14.48;5.10;;;;;;;16.73;79.62;100383.38;342001;28;1886;-73
2022/10/18 00:22:34;;;;;;;14.93;5.18;;;;;;;16.74;79.46;100388.56;342414;28;1046;-73
2022/10/18 00:22:46;;;;;;;11.10;5.25;;;;;;;16.75;79.19;100387.63;341525;28;1584;-73
2022/10/18 00:22:58;;;;;;;8.43;5.28;;;;;;;16.76;79.04;100391.09;342583;28;1077;-73
2022/10/18 00:23:10;;;;;;;9.60;5.47;;;;;;;16.76;79.10;100389.34;343291;28;1055;-73
2022/10/18 00:23:22;;;;;;;10.60;5.30;;;;;;;16.75;79.44;100382.38;343471;28;1143;-73
2022/10/18 00:23:35;;;;;;;11.68;5.20;;;;;;;16.77;79.07;100385.78;343341;28;1067;-73
2022/10/18 00:23:48;;;;;;;12.38;5.25;;;;;;;16.76;79.04;100394.59;343516;28;1299;-73
2022/10/18 00:24:00;;;;;;;14.77;5.28;;;;;;;16.75;79.35;100387.63;342276;28;1023;-73
2022/10/18 00:24:12;;;;;;;14.68;5.15;;;;;;;16.75;79.42;100392.88;342296;28;1023;-73
2022/10/18 00:24:24;;;;;;;13.55;5.13;;;;;;;16.77;79.31;100395.44;342053;28;1201;-74
2022/10/18 00:24:36;;;;;;;12.82;5.10;;;;;;;16.76;79.58;100391.97;341237;28;1156;-74
2022/10/18 00:24:48;;;;;;;11.50;5.22;;;;;;;16.77;79.60;100393.66;340756;29;1059;-73
2022/10/18 00:24:59;;;;;;;11.30;5.15;;;;;;;16.78;79.38;100384.88;339497;29;2157;-73
2022/10/18 00:25:11;;;;;;;12.52;5.45;;;;;;;16.81;79.31;100388.25;339575;29;1260;-73
2022/10/18 00:25:23;;;;;;;11.70;5.55;;;;;;;16.82;79.41;100379.47;340447;29;1298;-73
2022/10/18 00:25:35;;;;;;;15.60;5.65;;;;;;;16.84;79.31;100382.88;340781;29;1251;-73
2022/10/18 00:25:47;;;;;;;13.10;5.30;;;;;;;16.88;79.07;100381.81;338670;29;1696;-73
2022/10/18 00:26:04;;;;;;;12.13;5.10;;;;;;;16.89;79.10;100388.78;339697;29;1105;-73
2022/10/18 00:26:26;;;;;;;9.65;5.30;;;;;;;16.93;78.60;100382.47;340444;28;1061;-73
2022/10/18 00:26:38;;;;;;;11.00;5.03;;;;;;;16.92;78.82;100389.50;340930;28;1744;-73
2022/10/18 00:26:50;;;;;;;12.75;5.13;;;;;;;16.94;78.67;100385.03;340735;29;1030;-73
2022/10/18 00:27:01;;;;;;;10.95;5.22;;;;;;;16.95;78.57;100378.84;341129;29;952;-73
2022/10/18 00:27:13;;;;;;;13.43;5.28;;;;;;;16.96;78.50;100390.19;340608;29;2233;-73
2022/10/18 00:27:28;;;;;;;11.43;5.10;;;;;;;16.95;78.40;100385.88;340699;29;1237;-73
2022/10/18 00:27:40;;;;;;;10.63;5.28;;;;;;;16.93;78.46;100385.94;340896;29;1263;-73
2022/10/18 00:27:52;;;;;;;10.32;5.50;;;;;;;16.93;78.39;100385.09;341688;28;1010;-73
2022/10/18 00:28:04;;;;;;;9.73;5.57;;;;;;;16.92;78.57;100378.13;341963;28;1078;-73
2022/10/18 00:28:16;;;;;;;9.43;5.85;;;;;;;16.91;78.51;100389.56;341927;28;1181;-73
2022/10/18 00:28:28;;;;;;;10.57;5.85;;;;;;;16.92;78.66;100386.00;341883;28;1703;-74
2022/10/18 00:28:41;;;;;;;10.25;5.55;;;;;;;16.91;78.22;100387.78;342119;28;922;-73
2022/10/18 00:28:58;;;;;;;10.75;5.25;;;;;;;16.93;78.47;100387.72;342643;28;1151;-73
2022/10/18 00:29:14;;;;;;;12.60;5.30;;;;;;;16.92;78.61;100380.75;343471;28;1028;-73
2022/10/18 00:29:26;;;;;;;13.27;5.40;;;;;;;16.89;78.88;100380.91;343385;28;1057;-73
2022/10/18 00:29:37;;;;;;;10.30;5.22;;;;;;;16.89;78.97;100383.53;343426;28;1015;-73
2022/10/18 00:29:52;;;;;;;11.30;5.13;;;;;;;16.87;78.76;100385.38;342012;28;1156;-73
2022/10/18 00:30:05;;;;;;;11.13;4.93;;;;;;;16.85;78.95;100381.97;342324;28;1540;-73
2022/10/18 00:30:17;;;;;;;11.07;5.10;;;;;;;16.86;78.95;100383.66;341030;28;1206;-73
2022/10/18 00:30:29;;;;;;;11.23;5.28;;;;;;;16.86;78.92;100384.53;341842;28;1063;-73
2022/10/18 00:30:41;;;;;;;8.73;5.30;;;;;;;16.85;79.20;100384.59;341784;28;1174;-73
2022/10/18 00:30:53;;;;;;;9.20;5.18;;;;;;;16.85;78.93;100387.22;342072;28;1043;-73
2022/10/18 00:31:22;;;;;;;13.75;5.15;;;;;;;16.89;78.98;100383.53;342083;28;1098;-73
2022/10/18 00:31:36;;;;;;;9.57;5.32;;;;;;;16.95;78.88;100383.25;341082;29;994;-73
2022/10/18 00:31:48;;;;;;;9.73;4.85;;;;;;;16.97;78.70;100384.03;341272;28;1297;-74
2022/10/18 00:32:00;;;;;;;9.23;4.53;;;;;;;17.00;78.60;100383.88;342198;28;1660;-74
2022/10/18 00:32:12;;;;;;;8.95;4.57;;;;;;;17.02;78.64;100387.25;341086;28;1283;-73
2022/10/18 00:32:25;;;;;;;7.72;4.68;;;;;;;17.05;78.46;100386.28;341376;28;1282;-73
2022/10/18 00:32:38;;;;;;;8.73;4.80;;;;;;;17.06;78.46;100382.72;340766;29;1120;-73
2022/10/18 00:32:50;;;;;;;11.38;4.93;;;;;;;17.06;78.35;100386.19;340849;29;1195;-73
2022/10/18 00:33:03;;;;;;;11.43;4.97;;;;;;;17.07;78.23;100387.91;340690;29;1054;-74
2022/10/18 00:33:15;;;;;;;10.48;5.05;;;;;;;17.07;78.11;100387.06;340724;29;1289;-73
2022/10/18 00:33:27;;;;;;;10.02;4.72;;;;;;;17.07;78.41;100387.91;342050;28;1178;-73
2022/10/18 00:33:39;;;;;;;9.18;4.88;;;;;;;17.09;78.02;100393.09;342156;28;1267;-73
2022/10/18 00:33:57;;;;;;;11.18;5.20;;;;;;;17.05;77.71;100389.75;342080;28;1231;-73
2022/10/18 00:34:13;;;;;;;9.27;5.43;;;;;;;16.98;77.75;100385.72;341167;28;1261;-73
2022/10/18 00:34:25;;;;;;;7.22;5.20;;;;;;;16.97;77.67;100384.03;341762;28;1350;-73
2022/10/18 00:34:39;;;;;;;8.45;5.80;;;;;;;16.94;77.70;100387.66;341983;28;1152;-73
2022/10/18 00:34:51;;;;;;;10.10;6.72;;;;;;;16.94;77.83;100392.03;342194;28;1311;-73
2022/10/18 00:35:03;;;;;;;10.68;7.32;;;;;;;16.91;77.98;100394.81;342486;28;1179;-73
2022/10/18 00:35:15;;;;;;;8.88;7.53;;;;;;;16.92;77.99;100386.00;342440;28;1190;-73
2022/10/18 00:35:27;;;;;;;12.50;8.00;;;;;;;16.92;77.58;100388.63;341176;28;1345;-73
2022/10/18 00:35:39;;;;;;;14.90;8.80;;;;;;;16.94;77.79;100392.03;340916;28;1707;-73
2022/10/18 00:35:51;;;;;;;14.27;9.02;;;;;;;16.95;77.83;100389.34;341179;28;1090;-73
2022/10/18 00:36:03;;;;;;;13.05;7.82;;;;;;;16.94;78.11;100382.41;342315;28;1173;-73
2022/10/18 00:36:15;;;;;;;11.05;7.35;;;;;;;16.95;78.21;100378.84;342299;28;1137;-73
2022/10/18 00:36:29;;;;;;;9.55;7.65;;;;;;;16.96;78.29;100390.19;342312;28;1215;-72
2022/10/18 00:36:42;;;;;;;11.73;8.55;;;;;;;16.97;78.17;100381.41;342681;28;1230;-73
2022/10/18 00:36:54;;;;;;;13.60;9.38;;;;;;;16.94;77.99;100378.91;343217;28;1031;-73
2022/10/18 00:37:06;;;;;;;14.43;10.40;;;;;;;16.92;78.26;100384.25;343268;28;1265;-73
2022/10/18 00:37:18;;;;;;;14.15;9.85;;;;;;;16.90;78.46;100380.84;343311;28;1376;-73
2022/10/18 00:37:31;;;;;;;14.60;9.38;;;;;;;16.91;78.49;100384.31;343886;28;763;-73
2022/10/18 00:37:43;;;;;;;13.55;8.27;;;;;;;16.91;78.79;100386.94;342792;28;1703;-73
2022/10/18 00:37:55;;;;;;;12.48;7.25;;;;;;;16.91;78.49;100379.06;342521;28;1187;-73
2022/10/18 00:38:06;;;;;;;12.98;6.50;;;;;;;16.90;78.61;100374.72;343349;28;1965;-73
2022/10/18 00:38:18;;;;;;;11.68;6.05;;;;;;;16.90;78.58;100374.72;342548;28;1821;-73
2022/10/18 00:38:30;;;;;;;10.55;5.88;;;;;;;16.91;78.70;100376.44;343206;28;1132;-74
2022/10/18 00:38:43;;;;;;;13.45;5.93;;;;;;;16.89;78.81;100373.88;343103;28;1780;-73
2022/10/18 00:38:55;;;;;;;15.35;6.00;;;;;;;16.89;78.71;100379.13;342368;28;1116;-73
2022/10/18 00:39:12;;;;;;;15.85;6.10;;;;;;;16.91;78.90;100381.69;343209;28;1181;-73
2022/10/18 00:39:24;;;;;;;14.00;6.20;;;;;;;16.93;78.75;100374.59;342548;28;1550;-73
2022/10/18 00:39:36;;;;;;;11.77;6.05;;;;;;;16.93;78.67;100380.69;342654;28;1895;-73
2022/10/18 00:39:48;;;;;;;10.43;5.93;;;;;;;16.95;78.69;100378.84;342652;28;1707;-74
2022/10/18 00:40:01;;;;;;;10.13;5.90;;;;;;;16.96;78.19;100375.31;343424;28;1652;-73
2022/10/18 00:40:12;;;;;;;9.98;5.85;;;;;;;16.96;78.17;100380.56;343261;28;1055;-73
2022/10/18 00:40:24;;;;;;;9.70;5.88;;;;;;;16.99;78.19;100379.56;342690;28;1668;-74
2022/10/18 00:40:36;;;;;;;10.65;5.75;;;;;;;17.01;78.46;100377.69;342831;28;1729;-74
2022/10/18 00:40:48;;;;;;;11.02;5.60;;;;;;;17.02;78.18;100383.78;342562;28;1685;-74
2022/10/18 00:41:01;;;;;;;10.93;5.60;;;;;;;17.04;78.40;100377.53;342027;28;1737;-73
2022/10/18 00:41:16;;;;;;;12.60;5.68;;;;;;;17.05;78.10;100376.63;343576;28;1229;-74
2022/10/18 00:41:31;;;;;;;11.80;5.50;;;;;;;17.07;78.02;100380.03;342355;28;1806;-73
2022/10/18 00:41:44;;;;;;;8.98;5.30;;;;;;;17.07;78.03;100376.56;342223;28;1737;-73
2022/10/18 00:41:56;;;;;;;9.93;5.77;;;;;;;17.09;77.96;100375.56;342745;28;1780;-73
2022/10/18 00:42:15;;;;;;;10.77;5.85;;;;;;;17.11;77.92;100378.97;342193;28;1220;-73
2022/10/18 00:42:32;;;;;;;12.07;5.40;;;;;;;17.14;78.02;100383.22;342872;28;1868;-73
2022/10/18 00:42:45;;;;;;;9.77;4.85;;;;;;;17.16;77.75;100387.47;341818;28;2022;-73
2022/10/18 00:42:57;;;;;;;7.32;4.60;;;;;;;17.17;77.69;100378.66;342370;28;1454;-73
2022/10/18 00:43:14;;;;;;;6.28;4.63;;;;;;;17.19;77.66;100386.47;342382;28;1084;-73
2022/10/18 00:43:26;;;;;;;9.80;5.10;;;;;;;17.17;77.56;100383.06;341731;28;1686;-74
2022/10/18 00:44:05;;;;;;;11.60;5.53;;;;;;;17.17;77.64;100383.91;341445;28;1842;-74
2022/10/18 00:44:17;;;;;;;14.48;9.73;;;;;;;17.10;77.50;100387.78;342267;28;1252;-73
2022/10/18 00:44:29;;;;;;;17.10;11.38;;;;;;;17.08;77.51;100387.00;341844;28;2207;-73
2022/10/18 00:44:41;;;;;;;15.73;9.50;;;;;;;17.08;77.72;100384.38;341631;28;1596;-73
2022/10/18 00:45:03;;;;;;;18.52;9.25;;;;;;;17.02;78.06;100389.88;341740;28;1604;-73
2022/10/18 00:45:19;;;;;;;15.40;8.15;;;;;;;17.02;78.39;100384.63;342207;28;1095;-73
2022/10/18 00:45:31;;;;;;;11.27;8.02;;;;;;;17.02;78.18;100384.63;340945;28;1737;-73
2022/10/18 00:45:43;;;;;;;12.45;8.35;;;;;;;17.04;78.14;100379.31;341307;28;2362;-73
2022/10/18 00:45:55;;;;;;;14.38;9.20;;;;;;;17.06;78.23;100383.56;342640;28;1199;-73
2022/10/18 00:46:07;;;;;;;14.80;9.10;;;;;;;17.05;78.18;100384.50;342507;28;1106;-73
2022/10/18 00:46:19;;;;;;;15.55;8.95;;;;;;;17.05;78.40;100381.88;342300;28;1310;-74
2022/10/18 00:46:36;;;;;;;15.70;8.23;;;;;;;17.07;78.34;100381.81;341391;28;1066;-73
2022/10/18 00:46:50;;;;;;;14.20;7.65;;;;;;;17.08;78.57;100373.88;340720;28;1024;-73
2022/10/18 00:47:07;;;;;;;11.80;7.35;;;;;;;17.11;78.37;100389.47;340919;28;1663;-73
2022/10/18 00:47:19;;;;;;;9.65;6.97;;;;;;;17.10;78.81;100379.91;342191;28;1373;-74
2022/10/18 00:47:33;;;;;;;11.75;7.07;;;;;;;17.09;78.80;100391.31;342642;28;1492;-73
2022/10/18 00:47:50;;;;;;;13.80;7.18;;;;;;;17.09;78.70;100386.06;342000;28;1889;-73
2022/10/18 00:48:03;;;;;;;12.75;6.65;;;;;;;17.11;78.57;100384.22;343072;28;1959;-73
2022/10/18 00:48:19;;;;;;;13.43;6.55;;;;;;;17.12;78.66;100391.19;343840;28;1029;-73
2022/10/18 00:48:31;;;;;;;13.45;6.63;;;;;;;17.13;78.43;100390.25;342305;28;999;-74
2022/10/18 00:48:43;;;;;;;11.27;5.95;;;;;;;17.15;78.54;100391.03;342596;28;1066;-73
2022/10/18 00:48:58;;;;;;;11.88;5.60;;;;;;;17.17;78.44;100389.16;342445;28;1084;-73
2022/10/18 00:49:14;;;;;;;12.70;5.50;;;;;;;17.19;78.36;100385.63;342471;28;1285;-73
2022/10/18 00:49:33;;;;;;;8.73;5.38;;;;;;;17.22;78.18;100393.34;343507;28;875;-73
2022/10/18 00:49:50;;;;;;;13.70;5.78;;;;;;;17.23;78.07;100387.19;342969;28;1761;-73
2022/10/18 00:50:04;;;;;;;16.38;5.70;;;;;;;17.20;77.81;100397.81;343180;28;1548;-73
2022/10/18 00:50:17;;;;;;;13.18;5.97;;;;;;;17.18;77.88;100390.00;342508;28;1133;-74
2022/10/18 00:50:32;;;;;;;12.45;6.50;;;;;;;17.19;77.88;100388.25;341688;28;1688;-73
2022/10/18 00:50:46;;;;;;;13.73;6.45;;;;;;;17.19;77.78;100396.97;341070;28;1567;-73
2022/10/18 00:50:58;;;;;;;13.63;6.13;;;;;;;17.22;77.66;100393.34;342574;28;1277;-73
2022/10/18 00:51:10;;;;;;;11.30;5.75;;;;;;;17.22;77.86;100395.97;342441;28;1668;-73
2022/10/18 00:51:27;;;;;;;11.20;6.15;;;;;;;17.18;77.71;100390.00;342375;28;1094;-73
2022/10/18 00:52:03;;;;;;;12.57;6.55;;;;;;;17.10;77.96;100387.78;341601;28;1054;-73
2022/10/18 00:52:20;;;;;;;12.55;6.03;;;;;;;17.13;78.13;100386.78;341288;28;1091;-73
2022/10/18 00:52:43;;;;;;;14.75;6.13;;;;;;;17.13;78.31;100387.63;341500;28;2036;-73
2022/10/18 00:52:58;;;;;;;13.40;6.70;;;;;;;17.14;78.25;100394.59;342169;28;1550;-73
2022/10/18 00:53:16;;;;;;;11.93;7.20;;;;;;;17.13;78.28;100392.88;341507;28;1278;-73
2022/10/18 00:53:28;;;;;;;11.32;6.50;;;;;;;17.13;78.37;100395.50;341678;28;1687;-73
2022/10/18 00:53:40;;;;;;;11.43;6.47;;;;;;;17.12;78.44;100396.44;341683;28;1715;-74
2022/10/18 00:53:52;;;;;;;11.23;6.43;;;;;;;17.13;78.67;100395.50;342127;28;1850;-74
2022/10/18 00:54:04;;;;;;;11.05;6.20;;;;;;;17.13;78.77;100395.50;342459;28;1421;-74
2022/10/18 00:54:18;;;;;;;10.98;6.22;;;;;;;17.15;78.72;100396.28;342579;28;1925;-74
2022/10/18 00:54:33;;;;;;;11.50;6.40;;;;;;;17.13;78.86;100392.88;341879;28;1607;-73
2022/10/18 00:54:47;;;;;;;12.88;6.50;;;;;;;17.13;78.82;100392.88;341744;28;1716;-73
2022/10/18 00:54:59;;;;;;;11.73;6.20;;;;;;;17.15;79.06;100384.91;341187;28;1275;-73
2022/10/18 00:55:12;;;;;;;12.07;6.50;;;;;;;17.16;79.07;100392.75;341742;28;1018;-73
2022/10/18 00:55:25;;;;;;;10.38;6.68;;;;;;;17.16;78.73;100390.13;341765;28;1600;-73
2022/10/18 00:55:37;;;;;;;11.13;6.60;;;;;;;17.14;78.90;100389.34;341377;28;1669;-73
2022/10/18 00:55:49;;;;;;;11.13;6.55;;;;;;;17.15;78.94;100396.28;341450;28;1729;-73
2022/10/18 00:56:01;;;;;;;9.90;6.55;;;;;;;17.13;78.90;100385.00;342318;28;1823;-73
2022/10/18 00:56:13;;;;;;;10.30;6.28;;;;;;;17.14;78.89;100388.47;342723;28;1096;-73
2022/10/18 00:56:25;;;;;;;11.30;6.28;;;;;;;17.12;78.85;100391.19;341970;28;1729;-73
2022/10/18 00:56:38;;;;;;;10.13;6.43;;;;;;;17.12;79.18;100393.81;341874;28;1619;-73
2022/10/18 00:56:50;;;;;;;11.35;6.75;;;;;;;17.12;79.06;100391.19;341620;28;2596;-73
2022/10/18 00:57:03;;;;;;;12.60;6.57;;;;;;;17.13;79.05;100387.63;342639;28;1647;-73
2022/10/18 00:57:16;;;;;;;10.30;6.15;;;;;;;17.13;78.71;100392.88;342779;28;1074;-73
2022/10/18 00:57:28;;;;;;;9.93;6.20;;;;;;;17.15;78.86;100391.03;341700;28;1827;-73
2022/10/18 00:57:42;;;;;;;10.00;6.43;;;;;;;17.15;78.53;100392.81;342078;28;1961;-73
2022/10/18 00:57:55;;;;;;;11.25;6.45;;;;;;;17.19;78.58;100385.63;343058;28;1672;-73
2022/10/18 00:58:08;;;;;;;10.60;5.97;;;;;;;17.20;78.06;100388.16;343621;28;1679;-73
2022/10/18 00:58:20;;;;;;;9.02;5.43;;;;;;;17.24;78.38;100383.63;343416;28;1228;-73
2022/10/18 00:58:33;;;;;;;8.98;5.45;;;;;;;17.27;78.31;100391.38;342618;28;1968;-73
2022/10/18 00:58:47;;;;;;;9.98;5.72;;;;;;;17.28;78.36;100391.25;342352;28;2135;-73
2022/10/18 00:58:59;;;;;;;10.32;6.03;;;;;;;17.28;78.45;100382.53;342714;28;1777;-73
2022/10/18 00:59:15;;;;;;;9.98;6.18;;;;;;;17.28;78.35;100387.78;343475;28;1590;-73
2022/10/18 00:59:28;;;;;;;10.88;6.40;;;;;;;17.28;78.22;100379.91;342624;28;1660;-73
2022/10/18 00:59:41;;;;;;;10.40;6.35;;;;;;;17.28;78.32;100385.16;342582;28;2056;-73
2022/10/18 00:59:54;;;;;;;10.02;6.15;;;;;;;17.28;78.53;100390.41;342058;28;1628;-73
2022/10/18 01:00:08;;;;;;;10.85;6.22;;;;;;;17.29;78.37;100386.88;343820;28;1656;-73
2022/10/18 01:00:20;;;;;;;11.05;6.18;;;;;;;17.28;78.35;100382.53;342746;28;1089;-73
2022/10/18 01:00:37;;;;;;;9.57;6.07;;;;;;;17.27;78.29;100386.09;342535;28;1542;-73
2022/10/18 01:00:49;;;;;;;7.70;5.95;;;;;;;17.26;78.86;100387.03;342568;28;1970;-73
2022/10/18 01:01:01;;;;;;;9.38;6.32;;;;;;;17.25;78.61;100380.91;342838;28;1813;-73
2022/10/18 01:01:13;;;;;;;10.73;6.20;;;;;;;17.25;78.67;100375.66;343588;28;1207;-74
2022/10/18 01:01:25;;;;;;;11.90;6.32;;;;;;;17.26;78.49;100387.88;343117;28;1443;-73
2022/10/18 01:01:39;;;;;;;9.85;6.10;;;;;;;17.25;78.55;100382.72;342528;28;2290;-73
2022/10/18 01:01:52;;;;;;;10.52;6.30;;;;;;;17.25;78.47;100383.53;342373;28;1969;-73
2022/10/18 01:02:05;;;;;;;13.45;6.55;;;;;;;17.26;78.69;100379.13;342679;28;1862;-73
2022/10/18 01:02:17;;;;;;;14.27;6.38;;;;;;;17.26;78.79;100387.03;343286;28;1831;-73
2022/10/18 01:02:31;;;;;;;11.77;6.10;;;;;;;17.26;78.79;100387.03;342721;28;1653;-73